createdAt,value
2024-02-01T00:00:16.236Z,0.95
2024-02-01T00:02:42.954Z,0.95
2024-02-01T00:05:09.837Z,1.63
2024-02-01T00:07:36.674Z,1.85
2024-02-01T00:10:03.153Z,1.88
2024-02-01T00:12:29.653Z,2.00
2024-02-01T00:14:56.512Z,1.85
2024-02-01T00:17:23.049Z,1.70
2024-02-01T00:19:49.704Z,1.23
2024-02-01T00:22:23.670Z,1.67
2024-02-01T00:24:57.106Z,1.48
2024-02-01T00:27:23.814Z,2.35
2024-02-01T00:29:50.212Z,1.20
2024-02-01T00:32:16.771Z,1.55
2024-02-01T00:34:44.160Z,1.77
2024-02-01T00:37:10.938Z,1.80
2024-02-01T00:39:37.778Z,2.05
2024-02-01T00:42:04.624Z,1.67
2024-02-01T00:44:31.332Z,2.03
2024-02-01T00:46:59.868Z,1.83
2024-02-01T00:49:26.493Z,2.30
2024-02-01T00:51:53.890Z,1.80
2024-02-01T00:54:20.425Z,2.28
2024-02-01T00:56:46.926Z,2.33
2024-02-01T00:59:13.400Z,1.70
2024-02-01T01:01:40.608Z,1.48
2024-02-01T01:04:07.438Z,1.45
2024-02-01T01:06:33.990Z,1.45
2024-02-01T01:09:00.992Z,2.67
2024-02-01T01:11:28.375Z,2.10
2024-02-01T01:16:21.524Z,1.02
2024-02-01T01:18:48.332Z,1.52
2024-02-01T01:21:15.232Z,2.10
2024-02-01T01:23:42.261Z,1.70
2024-02-01T01:26:09.081Z,1.45
2024-02-01T01:28:35.510Z,2.35
2024-02-01T01:31:03.018Z,2.55
2024-02-01T01:33:30.072Z,1.77
2024-02-01T01:35:57.151Z,1.30
2024-02-01T01:38:23.867Z,2.40
2024-02-01T01:40:50.295Z,1.67
2024-02-01T01:43:16.926Z,2.15
2024-02-01T01:45:43.419Z,1.90
2024-02-01T01:48:10.114Z,1.77
2024-02-01T01:50:38.413Z,1.38
2024-02-01T01:53:05.434Z,1.42
2024-02-01T01:55:32.634Z,2.25
2024-02-01T01:57:59.319Z,1.75
2024-02-01T02:00:25.844Z,1.75
2024-02-01T02:02:52.854Z,2.83
2024-02-01T02:05:19.493Z,1.52
2024-02-01T02:07:46.681Z,1.55
2024-02-01T02:10:14.545Z,1.88
2024-02-01T02:12:41.371Z,2.08
2024-02-01T02:15:08.704Z,1.48
2024-02-01T02:20:13.241Z,1.33
2024-02-01T02:22:39.908Z,1.15
2024-02-01T02:25:07.191Z,1.48
2024-02-01T02:27:33.917Z,1.33
2024-02-01T02:30:00.683Z,1.58
2024-02-01T02:32:27.215Z,1.70
2024-02-01T02:34:53.699Z,1.60
2024-02-01T02:37:20.143Z,1.33
2024-02-01T02:39:46.848Z,1.70
2024-02-01T02:42:13.615Z,1.88
2024-02-01T02:44:40.188Z,1.15
2024-02-01T02:47:06.850Z,1.92
2024-02-01T02:49:33.312Z,2.10
2024-02-01T02:51:59.932Z,1.67
2024-02-01T02:54:26.436Z,2.13
2024-02-01T02:56:53.090Z,1.85
2024-02-01T02:59:19.874Z,2.30
2024-02-01T03:01:46.489Z,2.15
2024-02-01T03:04:13.062Z,2.15
2024-02-01T03:06:39.844Z,1.38
2024-02-01T03:09:06.531Z,2.25
2024-02-01T03:11:33.038Z,1.73
2024-02-01T03:13:59.897Z,2.53
2024-02-01T03:16:26.584Z,1.55
2024-02-01T03:18:53.375Z,2.90
2024-02-01T03:21:20.157Z,2.00
2024-02-01T03:23:48.909Z,1.85
2024-02-01T03:26:15.952Z,1.75
2024-02-01T03:28:44.011Z,1.80
2024-02-01T03:31:10.588Z,1.63
2024-02-01T03:33:37.499Z,2.38
2024-02-01T03:36:04.610Z,2.70
2024-02-01T03:38:31.047Z,1.83
2024-02-01T03:40:57.504Z,1.73
2024-02-01T03:43:23.923Z,0.98
2024-02-01T03:45:50.463Z,2.25
2024-02-01T03:48:18.839Z,1.77
2024-02-01T03:50:45.629Z,1.80
2024-02-01T03:53:12.429Z,2.35
2024-02-01T03:55:39.094Z,1.95
2024-02-01T03:58:05.733Z,2.55
2024-02-01T04:00:32.563Z,1.58
2024-02-01T04:03:01.214Z,1.60
2024-02-01T04:05:28.838Z,2.08
2024-02-01T04:07:55.819Z,2.45
2024-02-01T04:10:22.662Z,2.17
2024-02-01T04:12:49.766Z,1.10
2024-02-01T04:15:16.637Z,2.45
2024-02-01T04:17:43.311Z,2.10
2024-02-01T04:20:13.080Z,1.75
2024-02-01T04:22:39.888Z,1.75
2024-02-01T04:25:06.568Z,2.25
2024-02-01T04:27:33.253Z,1.80
2024-02-01T04:29:59.830Z,1.92
2024-02-01T04:32:26.530Z,1.88
2024-02-01T04:34:53.252Z,2.65
2024-02-01T04:37:19.999Z,2.85
2024-02-01T04:39:46.744Z,2.33
2024-02-01T04:42:13.304Z,3.03
2024-02-01T04:44:40.060Z,2.28
2024-02-01T04:47:06.572Z,2.13
2024-02-01T04:49:33.500Z,2.30
2024-02-01T04:52:00.270Z,3.47
2024-02-01T04:54:27.311Z,2.50
2024-02-01T04:56:53.804Z,2.38
2024-02-01T04:59:20.520Z,2.70
2024-02-01T05:01:47.192Z,2.42
2024-02-01T05:04:13.671Z,1.90
2024-02-01T05:06:41.525Z,2.50
2024-02-01T05:09:08.046Z,2.60
2024-02-01T05:11:34.616Z,3.85
2024-02-01T05:14:01.418Z,3.22
2024-02-01T05:16:28.782Z,2.22
2024-02-01T05:18:55.334Z,2.83
2024-02-01T05:21:21.879Z,4.13
2024-02-01T05:23:48.337Z,2.42
2024-02-01T05:26:14.781Z,2.60
2024-02-01T05:28:41.243Z,2.45
2024-02-01T05:31:10.127Z,2.83
2024-02-01T05:33:37.416Z,3.13
2024-02-01T05:36:04.079Z,3.13
2024-02-01T05:38:30.531Z,3.13
2024-02-01T05:40:57.060Z,3.25
2024-02-01T05:43:23.667Z,1.80
2024-02-01T05:45:50.866Z,3.88
2024-02-01T05:48:17.688Z,2.85
2024-02-01T05:50:44.251Z,3.05
2024-02-01T05:53:11.216Z,3.15
2024-02-01T05:55:37.672Z,2.70
2024-02-01T05:58:04.375Z,2.83
2024-02-01T06:00:30.966Z,3.63
2024-02-01T06:02:57.603Z,3.70
2024-02-01T06:05:24.433Z,2.85
2024-02-01T06:07:50.893Z,2.78
2024-02-01T06:10:17.380Z,3.13
2024-02-01T06:12:43.824Z,2.60
2024-02-01T06:15:10.820Z,3.00
2024-02-01T06:17:37.582Z,2.80
2024-02-01T06:20:04.859Z,3.05
2024-02-01T06:22:31.625Z,2.92
2024-02-01T06:24:58.317Z,3.72
2024-02-01T06:27:25.100Z,2.17
2024-02-01T06:29:51.642Z,2.38
2024-02-01T06:32:18.208Z,3.35
2024-02-01T06:34:44.947Z,3.58
2024-02-01T06:37:11.704Z,3.88
2024-02-01T06:39:38.105Z,1.92
2024-02-01T06:42:07.647Z,2.30
2024-02-01T06:44:34.206Z,3.08
2024-02-01T06:47:01.327Z,3.40
2024-02-01T06:49:35.298Z,3.95
2024-02-01T06:52:04.276Z,2.25
2024-02-01T06:54:30.855Z,3.55
2024-02-01T06:56:57.448Z,2.22
2024-02-01T06:59:23.998Z,2.42
2024-02-01T07:01:50.819Z,3.78
2024-02-01T07:04:18.344Z,2.35
2024-02-01T07:06:45.417Z,4.32
2024-02-01T07:09:11.895Z,3.30
2024-02-01T07:11:38.689Z,2.83
2024-02-01T07:14:05.192Z,2.22
2024-02-01T07:16:31.640Z,2.85
2024-02-01T07:18:58.307Z,3.75
2024-02-01T07:21:25.176Z,2.90
2024-02-01T07:23:51.714Z,3.17
2024-02-01T07:26:19.247Z,2.90
2024-02-01T07:28:46.197Z,2.88
2024-02-01T07:31:12.655Z,2.72
2024-02-01T07:33:39.502Z,1.98
2024-02-01T07:36:06.215Z,2.75
2024-02-01T07:38:32.715Z,2.03
2024-02-01T07:40:59.382Z,2.53
2024-02-01T07:43:26.093Z,3.08
2024-02-01T07:45:52.855Z,2.92
2024-02-01T07:48:19.759Z,3.47
2024-02-01T07:50:46.634Z,1.90
2024-02-01T07:53:13.450Z,3.88
2024-02-01T07:55:39.927Z,2.90
2024-02-01T07:58:07.475Z,2.40
2024-02-01T08:00:34.212Z,2.28
2024-02-01T08:03:05.177Z,2.90
2024-02-01T08:05:32.733Z,2.83
2024-02-01T08:07:59.467Z,2.72
2024-02-01T08:10:26.247Z,3.70
2024-02-01T08:12:52.748Z,2.78
2024-02-01T08:15:19.560Z,3.35
2024-02-01T08:17:47.378Z,1.63
2024-02-01T08:20:14.697Z,2.75
2024-02-01T08:25:15.961Z,2.22
2024-02-01T08:27:42.694Z,2.05
2024-02-01T08:30:09.570Z,3.38
2024-02-01T08:32:36.207Z,1.75
2024-02-01T08:35:03.177Z,2.63
2024-02-01T08:37:29.758Z,1.13
2024-02-01T08:39:56.216Z,1.65
2024-02-01T08:42:24.113Z,2.13
2024-02-01T08:44:50.674Z,1.45
2024-02-01T08:47:17.747Z,1.10
2024-02-01T08:49:44.503Z,1.40
2024-02-01T08:52:11.267Z,1.42
2024-02-01T08:54:37.991Z,1.23
2024-02-01T08:57:04.806Z,1.25
2024-02-01T08:59:31.706Z,1.10
2024-02-01T09:01:58.438Z,1.60
2024-02-01T09:04:25.031Z,1.50
2024-02-01T09:06:52.059Z,1.15
2024-02-01T09:09:18.653Z,1.17
2024-02-01T09:11:45.192Z,0.43
2024-02-01T09:14:11.937Z,1.08
2024-02-01T09:16:38.380Z,0.90
2024-02-01T09:19:05.099Z,0.90
2024-02-01T09:21:32.435Z,1.13
2024-02-01T09:23:58.953Z,0.73
2024-02-01T09:26:25.362Z,1.50
2024-02-01T09:28:51.806Z,0.98
2024-02-01T09:31:18.253Z,1.75
2024-02-01T09:33:46.222Z,1.00
2024-02-01T09:36:13.805Z,0.80
2024-02-01T09:38:41.283Z,1.00
2024-02-01T09:41:08.310Z,0.55
2024-02-01T09:43:36.775Z,1.02
2024-02-01T09:46:03.573Z,0.20
2024-02-01T09:48:31.722Z,1.13
2024-02-01T09:50:58.350Z,0.90
2024-02-01T09:53:27.144Z,0.93
2024-02-01T09:55:54.399Z,0.60
2024-02-01T09:58:22.392Z,0.65
2024-02-01T10:00:49.410Z,0.45
2024-02-01T10:03:17.997Z,0.77
2024-02-01T10:05:44.881Z,0.50
2024-02-01T10:08:12.665Z,0.65
2024-02-01T10:10:40.673Z,1.10
2024-02-01T10:13:09.533Z,0.32
2024-02-01T10:15:36.030Z,0.75
2024-02-01T10:18:02.797Z,0.60
2024-02-01T10:20:30.436Z,1.05
2024-02-01T10:22:59.137Z,0.40
2024-02-01T10:25:25.865Z,0.88
2024-02-01T10:27:55.494Z,0.55
2024-02-01T10:30:22.304Z,0.60
2024-02-01T10:32:50.560Z,0.70
2024-02-01T10:35:20.058Z,0.45
2024-02-01T10:37:52.308Z,0.52
2024-02-01T10:40:29.481Z,0.63
2024-02-01T10:43:00.610Z,0.95
2024-02-01T10:45:33.468Z,0.60
2024-02-01T10:48:05.356Z,0.57
2024-02-01T10:50:32.099Z,0.60
2024-02-01T10:52:58.677Z,0.40
2024-02-01T10:55:25.624Z,0.65
2024-02-01T10:57:52.564Z,0.60
2024-02-01T11:00:19.495Z,1.40
2024-02-01T11:02:46.307Z,0.70
2024-02-01T11:05:12.781Z,1.02
2024-02-01T11:07:39.371Z,0.75
2024-02-01T11:10:06.982Z,0.70
2024-02-01T11:12:39.315Z,0.77
2024-02-01T11:15:06.780Z,0.50
2024-02-01T11:17:33.683Z,0.73
2024-02-01T11:20:00.475Z,0.73
2024-02-01T11:22:29.803Z,0.43
2024-02-01T11:25:08.950Z,0.40
2024-02-01T11:27:36.603Z,0.52
2024-02-01T11:30:05.760Z,0.60
2024-02-01T11:32:32.455Z,0.45
2024-02-01T11:34:59.288Z,0.43
2024-02-01T11:37:28.907Z,0.20
2024-02-01T11:39:57.713Z,0.40
2024-02-01T11:42:31.508Z,0.40
2024-02-01T11:45:00.209Z,0.20
2024-02-01T11:47:26.820Z,0.50
2024-02-01T11:49:54.989Z,0.57
2024-02-01T11:52:36.320Z,0.75
2024-02-01T11:55:03.369Z,0.15
2024-02-01T11:57:30.056Z,0.50
2024-02-01T11:59:56.482Z,0.70
2024-02-01T12:02:24.336Z,1.08
2024-02-01T12:04:51.039Z,0.93
2024-02-01T12:07:17.988Z,0.80
2024-02-01T12:09:48.675Z,0.45
2024-02-01T12:12:20.191Z,0.60
2024-02-01T12:14:47.172Z,0.13
2024-02-01T12:17:17.933Z,0.30
2024-02-01T12:19:48.860Z,0.52
2024-02-01T12:22:15.709Z,0.95
2024-02-01T12:24:42.911Z,0.75
2024-02-01T12:29:36.133Z,0.28
2024-02-01T12:32:02.869Z,0.50
2024-02-01T12:34:29.921Z,0.82
2024-02-01T12:36:56.438Z,1.00
2024-02-01T12:39:23.176Z,0.73
2024-02-01T12:41:52.527Z,0.80
2024-02-01T12:44:22.483Z,0.73
2024-02-01T12:46:49.042Z,0.40
2024-02-01T12:49:16.014Z,0.50
2024-02-01T12:51:44.122Z,1.20
2024-02-01T12:54:11.167Z,1.17
2024-02-01T12:56:39.884Z,0.93
2024-02-01T12:59:06.787Z,1.00
2024-02-01T13:01:33.264Z,0.98
2024-02-01T13:04:01.125Z,1.00
2024-02-01T13:06:28.247Z,0.60
2024-02-01T13:11:22.336Z,0.65
2024-02-01T13:13:48.817Z,0.40
2024-02-01T13:16:15.280Z,0.22
2024-02-01T13:18:42.211Z,0.30
2024-02-01T13:21:08.783Z,0.57
2024-02-01T13:23:35.568Z,0.45
2024-02-01T13:26:02.661Z,0.52
2024-02-01T13:28:29.553Z,0.45
2024-02-01T13:30:56.116Z,0.70
2024-02-01T13:33:22.771Z,0.30
2024-02-01T13:35:49.358Z,0.32
2024-02-01T13:38:15.822Z,0.70
2024-02-01T13:40:42.822Z,0.40
2024-02-01T13:43:09.393Z,0.55
2024-02-01T13:45:35.890Z,0.80
2024-02-01T13:48:02.927Z,0.50
2024-02-01T13:50:29.520Z,0.65
2024-02-01T13:52:56.639Z,1.13
2024-02-01T13:55:25.737Z,1.30
2024-02-01T13:57:53.104Z,0.60
2024-02-01T14:00:20.719Z,0.65
2024-02-01T14:02:54.303Z,0.75
2024-02-01T14:05:22.105Z,0.38
2024-02-01T14:07:52.415Z,0.70
2024-02-01T14:10:19.370Z,0.43
2024-02-01T14:12:46.568Z,0.50
2024-02-01T14:17:40.010Z,1.00
2024-02-01T14:20:07.947Z,0.63
2024-02-01T14:22:34.483Z,0.98
2024-02-01T14:25:01.161Z,0.80
2024-02-01T14:27:28.188Z,0.60
2024-02-01T14:29:54.982Z,1.17
2024-02-01T14:32:21.449Z,1.42
2024-02-01T14:34:48.424Z,0.82
2024-02-01T14:37:15.496Z,0.98
2024-02-01T14:39:43.168Z,0.60
2024-02-01T14:42:10.269Z,0.57
2024-02-01T14:44:37.032Z,0.90
2024-02-01T14:47:04.299Z,0.38
2024-02-01T14:51:57.243Z,0.25
2024-02-01T14:54:23.790Z,0.73
2024-02-01T14:56:50.772Z,1.20
2024-02-01T14:59:18.746Z,0.40
2024-02-01T15:01:46.017Z,1.00
2024-02-01T15:06:39.490Z,0.38
2024-02-01T15:09:06.252Z,1.05
2024-02-01T15:11:33.473Z,1.65
2024-02-01T15:16:30.137Z,0.88
2024-02-01T15:18:57.035Z,1.15
2024-02-01T15:21:24.643Z,1.35
2024-02-01T15:23:52.304Z,0.75
2024-02-01T15:26:18.969Z,1.13
2024-02-01T15:28:45.693Z,0.35
2024-02-01T15:31:12.442Z,0.75
2024-02-01T15:33:42.432Z,0.85
2024-02-01T15:36:09.271Z,0.47
2024-02-01T15:38:38.217Z,0.63
2024-02-01T15:41:05.024Z,0.80
2024-02-01T15:43:31.729Z,0.90
2024-02-01T15:45:58.206Z,0.77
2024-02-01T15:48:24.766Z,0.38
2024-02-01T15:50:51.307Z,0.75
2024-02-01T15:53:18.104Z,0.95
2024-02-01T15:55:44.817Z,1.30
2024-02-01T15:58:12.170Z,0.38
2024-02-01T16:00:40.120Z,0.77
2024-02-01T16:03:06.645Z,0.80
2024-02-01T16:05:52.176Z,0.80
2024-02-01T16:08:19.115Z,0.38
2024-02-01T16:10:48.733Z,0.80
2024-02-01T16:13:15.964Z,0.50
2024-02-01T16:18:35.058Z,1.42
2024-02-01T16:21:01.577Z,0.60
2024-02-01T16:23:28.430Z,0.70
2024-02-01T16:25:55.193Z,1.08
2024-02-01T16:28:34.776Z,0.40
2024-02-01T16:31:29.942Z,0.90
2024-02-01T16:34:22.598Z,1.00
2024-02-01T16:36:59.532Z,1.23
2024-02-01T16:39:34.676Z,0.50
2024-02-01T16:42:06.831Z,0.52
2024-02-01T16:44:48.934Z,1.27
2024-02-01T16:47:24.190Z,1.63
2024-02-01T16:49:52.693Z,0.60
2024-02-01T16:52:45.650Z,1.23
2024-02-01T16:55:44.592Z,1.40
2024-02-01T16:58:42.948Z,0.77
2024-02-01T17:01:34.354Z,0.82
2024-02-01T17:04:01.852Z,1.17
2024-02-01T17:06:29.102Z,1.17
2024-02-01T17:11:23.753Z,0.70
2024-02-01T17:13:54.406Z,0.70
2024-02-01T17:16:42.888Z,0.82
2024-02-01T17:19:11.172Z,0.30
2024-02-01T17:21:38.342Z,0.82
2024-02-01T17:24:09.262Z,1.02
2024-02-01T17:26:37.030Z,1.05
2024-02-01T17:31:37.901Z,0.15
2024-02-01T17:34:25.004Z,0.57
2024-02-01T17:36:54.054Z,1.67
2024-02-01T17:39:55.107Z,0.93
2024-02-01T17:42:32.607Z,0.63
2024-02-01T17:45:10.624Z,1.10
2024-02-01T17:47:37.775Z,0.80
2024-02-01T17:50:20.871Z,1.13
2024-02-01T17:52:47.601Z,1.15
2024-02-01T17:55:18.155Z,1.27
2024-02-01T17:57:44.580Z,1.25
2024-02-01T18:00:16.000Z,1.48
2024-02-01T18:02:46.451Z,1.30
2024-02-01T18:05:14.285Z,1.30
2024-02-01T18:07:41.116Z,1.08
2024-02-01T18:10:12.304Z,1.13
2024-02-01T18:12:39.026Z,0.73
2024-02-01T18:15:34.895Z,1.13
2024-02-01T18:18:01.811Z,0.95
2024-02-01T18:20:30.706Z,1.40
2024-02-01T18:23:00.539Z,0.63
2024-02-01T18:25:36.704Z,0.85
2024-02-01T18:28:03.404Z,1.13
2024-02-01T18:30:38.836Z,1.23
2024-02-01T18:33:07.515Z,0.50
2024-02-01T18:35:51.823Z,0.63
2024-02-01T18:38:18.441Z,0.73
2024-02-01T18:40:49.889Z,1.48
2024-02-01T18:43:22.389Z,1.10
2024-02-01T18:45:49.604Z,1.58
2024-02-01T18:48:45.818Z,0.85
2024-02-01T18:51:17.776Z,2.00
2024-02-01T18:53:46.123Z,1.23
2024-02-01T18:56:31.796Z,0.57
2024-02-01T18:58:59.603Z,0.70
2024-02-01T19:01:33.175Z,1.30
2024-02-01T19:04:09.350Z,1.15
2024-02-01T19:06:38.668Z,1.58
2024-02-01T19:09:18.350Z,0.77
2024-02-01T19:11:50.081Z,1.90
2024-02-01T19:14:19.694Z,1.58
2024-02-01T19:16:46.407Z,4.25
2024-02-01T19:19:13.008Z,2.00
2024-02-01T19:21:39.523Z,1.67
2024-02-01T19:24:06.778Z,1.55
2024-02-01T19:29:04.847Z,2.72
2024-02-01T19:31:31.618Z,4.43
2024-02-01T19:34:01.800Z,2.78
2024-02-01T19:36:29.126Z,5.57
2024-02-01T19:38:57.172Z,1.35
2024-02-01T19:41:23.907Z,1.65
2024-02-01T19:43:51.648Z,2.60
2024-02-01T19:46:18.133Z,0.75
2024-02-01T19:48:44.902Z,1.33
2024-02-01T19:51:11.467Z,1.70
2024-02-01T19:53:37.954Z,1.73
2024-02-01T19:56:05.111Z,1.25
2024-02-01T19:58:31.531Z,0.93
2024-02-01T20:00:58.050Z,1.83
2024-02-01T20:03:24.541Z,1.20
2024-02-01T20:05:54.511Z,1.70
2024-02-01T20:08:21.301Z,1.23
2024-02-01T20:10:48.072Z,4.18
2024-02-01T20:13:15.785Z,1.75
2024-02-01T20:15:42.555Z,0.30
2024-02-01T20:18:21.512Z,1.17
2024-02-01T20:20:49.939Z,0.98
2024-02-01T20:23:18.258Z,1.35
2024-02-01T20:25:44.989Z,1.02
2024-02-01T20:28:50.458Z,0.60
2024-02-01T20:31:34.819Z,0.38
2024-02-01T20:34:05.136Z,2.17
2024-02-01T20:37:01.676Z,0.70
2024-02-01T20:39:37.176Z,0.88
2024-02-01T20:42:17.971Z,1.00
2024-02-01T20:44:46.692Z,1.10
2024-02-01T20:47:35.445Z,1.38
2024-02-01T20:50:22.368Z,0.63
2024-02-01T20:52:48.823Z,1.15
2024-02-01T20:55:15.596Z,0.32
2024-02-01T20:57:47.455Z,0.47
2024-02-01T21:00:26.671Z,0.30
2024-02-01T21:03:02.038Z,1.23
2024-02-01T21:05:55.443Z,1.23
2024-02-01T21:08:38.678Z,0.73
2024-02-01T21:11:43.407Z,0.98
2024-02-01T21:14:46.681Z,0.82
2024-02-01T21:17:14.206Z,0.50
2024-02-01T21:19:40.960Z,0.85
2024-02-01T21:22:08.961Z,1.80
2024-02-01T21:24:36.260Z,1.58
2024-02-01T21:29:30.258Z,0.55
2024-02-01T21:32:00.592Z,0.77
2024-02-01T21:34:35.625Z,0.88
2024-02-01T21:37:05.397Z,0.65
2024-02-01T21:39:39.899Z,0.82
2024-02-01T21:42:06.850Z,0.47
2024-02-01T21:44:33.659Z,1.10
2024-02-01T21:47:00.125Z,0.65
2024-02-01T21:49:26.734Z,0.95
2024-02-01T21:51:53.251Z,0.40
2024-02-01T21:54:19.770Z,1.40
2024-02-01T21:56:46.506Z,1.10
2024-02-01T21:59:13.232Z,0.35
2024-02-01T22:01:39.694Z,0.95
2024-02-01T22:04:06.416Z,1.33
2024-02-01T22:06:33.292Z,0.13
2024-02-01T22:09:00.078Z,0.40
2024-02-01T22:11:27.113Z,0.15
2024-02-01T22:13:53.873Z,0.95
2024-02-01T22:16:20.593Z,0.68
2024-02-01T22:18:47.154Z,1.25
2024-02-01T22:21:14.016Z,0.95
2024-02-01T22:23:40.490Z,0.65
2024-02-01T22:26:06.944Z,0.45
2024-02-01T22:28:33.385Z,0.57
2024-02-01T22:30:59.847Z,0.88
2024-02-01T22:33:26.694Z,0.98
2024-02-01T22:35:53.710Z,0.82
2024-02-01T22:38:20.806Z,0.60
2024-02-01T22:40:48.667Z,1.40
2024-02-01T22:43:15.379Z,0.40
2024-02-01T22:45:42.073Z,1.30
2024-02-01T22:48:08.786Z,0.73
2024-02-01T22:50:35.380Z,0.20
2024-02-01T22:53:02.068Z,0.90
2024-02-01T22:55:29.210Z,1.15
2024-02-01T22:57:55.939Z,0.60
2024-02-01T23:00:22.768Z,0.73
2024-02-01T23:02:50.966Z,0.60
2024-02-01T23:05:17.957Z,0.95
2024-02-01T23:07:44.549Z,0.63
2024-02-01T23:10:11.154Z,0.50
2024-02-01T23:12:37.569Z,0.55
2024-02-01T23:15:07.529Z,1.20
2024-02-01T23:17:34.113Z,1.15
2024-02-01T23:20:01.105Z,0.88
2024-02-01T23:24:57.047Z,0.47
2024-02-01T23:27:23.920Z,0.03
2024-02-01T23:29:50.547Z,1.00
2024-02-01T23:32:17.309Z,1.27
2024-02-01T23:34:44.226Z,0.75
2024-02-01T23:37:11.469Z,0.75
2024-02-01T23:42:08.136Z,0.40
2024-02-01T23:44:34.933Z,0.70
2024-02-01T23:47:01.657Z,0.82
2024-02-01T23:49:28.481Z,0.60
2024-02-01T23:51:55.066Z,0.43
2024-02-01T23:54:21.560Z,1.00
2024-02-01T23:56:49.595Z,0.93
2024-02-01T23:59:16.079Z,0.32
